sensor_id;sensor_type;location;lat;lon;timestamp;pressure;altitude;pressure_sealevel;temperature;humidity
59170;BME280;52474;52.236;5.114;2023-07-13T00:02:15;101356.03;;;16.82;100.00
59170;BME280;52474;52.236;5.114;2023-07-13T00:04:41;101337.16;;;16.65;100.00
59170;BME280;52474;52.236;5.114;2023-07-13T00:07:07;101361.97;;;16.75;100.00
59170;BME280;52474;52.236;5.114;2023-07-13T00:09:34;101364.38;;;16.79;100.00
59170;BME280;52474;52.236;5.114;2023-07-13T00:12:01;101367.41;;;16.84;100.00
59170;BME280;52474;52.236;5.114;2023-07-13T00:14:29;101365.03;;;16.81;100.00
59170;BME280;52474;52.236;5.114;2023-07-13T00:16:55;101369.97;;;16.75;100.00
59170;BME280;52474;52.236;5.114;2023-07-13T00:19:21;101367.16;;;16.77;100.00
59170;BME280;52474;52.236;5.114;2023-07-13T00:21:46;101356.78;;;16.74;100.00
59170;BME280;52474;52.236;5.114;2023-07-13T00:24:14;101357.47;;;16.76;100.00
59170;BME280;52474;52.236;5.114;2023-07-13T00:26:41;101366.72;;;16.82;100.00
59170;BME280;52474;52.236;5.114;2023-07-13T00:29:10;101366.03;;;16.80;100.00
59170;BME280;52474;52.236;5.114;2023-07-13T00:31:36;101364.81;;;16.74;100.00
59170;BME280;52474;52.236;5.114;2023-07-13T00:34:03;101343.47;;;16.56;100.00
59170;BME280;52474;52.236;5.114;2023-07-13T00:36:30;101361.09;;;16.67;100.00
59170;BME280;52474;52.236;5.114;2023-07-13T00:38:57;101359.72;;;16.63;100.00
59170;BME280;52474;52.236;5.114;2023-07-13T00:41:23;101371.78;;;16.67;100.00
59170;BME280;52474;52.236;5.114;2023-07-13T00:43:49;101365.06;;;16.63;100.00
59170;BME280;52474;52.236;5.114;2023-07-13T00:46:30;101358.19;;;16.60;100.00
59170;BME280;52474;52.236;5.114;2023-07-13T00:49:00;101350.28;;;16.50;100.00
59170;BME280;52474;52.236;5.114;2023-07-13T00:51:58;101367.22;;;16.59;100.00
59170;BME280;52474;52.236;5.114;2023-07-13T00:54:38;101352.50;;;16.55;100.00
59170;BME280;52474;52.236;5.114;2023-07-13T00:57:05;101357.69;;;16.57;100.00
59170;BME280;52474;52.236;5.114;2023-07-13T00:59:34;101365.34;;;16.51;100.00
59170;BME280;52474;52.236;5.114;2023-07-13T01:02:01;101354.44;;;16.45;100.00
59170;BME280;52474;52.236;5.114;2023-07-13T01:04:27;101370.00;;;16.49;100.00
59170;BME280;52474;52.236;5.114;2023-07-13T01:06:55;101375.34;;;16.49;100.00
59170;BME280;52474;52.236;5.114;2023-07-13T01:09:22;101372.34;;;16.52;100.00
59170;BME280;52474;52.236;5.114;2023-07-13T01:11:49;101372.50;;;16.51;100.00
59170;BME280;52474;52.236;5.114;2023-07-13T01:14:15;101369.16;;;16.49;100.00
59170;BME280;52474;52.236;5.114;2023-07-13T01:16:46;101370.28;;;16.46;100.00
59170;BME280;52474;52.236;5.114;2023-07-13T01:22:13;101368.25;;;16.40;100.00
59170;BME280;52474;52.236;5.114;2023-07-13T01:24:41;101382.31;;;16.42;100.00
59170;BME280;52474;52.236;5.114;2023-07-13T01:27:09;101373.97;;;16.45;100.00
59170;BME280;52474;52.236;5.114;2023-07-13T01:29:37;101377.72;;;16.52;100.00
59170;BME280;52474;52.236;5.114;2023-07-13T01:32:10;101376.78;;;16.62;100.00
59170;BME280;52474;52.236;5.114;2023-07-13T01:34:36;101386.47;;;16.63;100.00
59170;BME280;52474;52.236;5.114;2023-07-13T01:37:05;101387.94;;;16.57;100.00
59170;BME280;52474;52.236;5.114;2023-07-13T01:39:31;101384.34;;;16.48;100.00
59170;BME280;52474;52.236;5.114;2023-07-13T01:41:57;101394.53;;;16.45;100.00
59170;BME280;52474;52.236;5.114;2023-07-13T01:44:23;101388.81;;;16.40;100.00
59170;BME280;52474;52.236;5.114;2023-07-13T01:46:49;101393.09;;;16.33;100.00
59170;BME280;52474;52.236;5.114;2023-07-13T01:49:16;101391.59;;;16.30;100.00
59170;BME280;52474;52.236;5.114;2023-07-13T01:51:42;101393.19;;;16.23;100.00
59170;BME280;52474;52.236;5.114;2023-07-13T01:54:07;101390.97;;;16.18;100.00
59170;BME280;52474;52.236;5.114;2023-07-13T01:56:33;101403.66;;;16.16;100.00
59170;BME280;52474;52.236;5.114;2023-07-13T01:58:59;101368.25;;;15.96;100.00
59170;BME280;52474;52.236;5.114;2023-07-13T02:01:24;101401.06;;;16.06;100.00
59170;BME280;52474;52.236;5.114;2023-07-13T02:03:50;101396.16;;;16.02;100.00
59170;BME280;52474;52.236;5.114;2023-07-13T02:06:16;101397.19;;;16.01;100.00
59170;BME280;52474;52.236;5.114;2023-07-13T02:08:42;101394.44;;;15.93;100.00
59170;BME280;52474;52.236;5.114;2023-07-13T02:11:08;101381.16;;;15.83;100.00
59170;BME280;52474;52.236;5.114;2023-07-13T02:13:34;101389.16;;;15.83;100.00
59170;BME280;52474;52.236;5.114;2023-07-13T02:16:00;101397.25;;;15.91;100.00
59170;BME280;52474;52.236;5.114;2023-07-13T02:18:26;101401.53;;;15.84;100.00
59170;BME280;52474;52.236;5.114;2023-07-13T02:20:52;101413.47;;;15.80;100.00
59170;BME280;52474;52.236;5.114;2023-07-13T02:23:18;101398.59;;;15.77;100.00
59170;BME280;52474;52.236;5.114;2023-07-13T02:25:46;101417.69;;;15.82;100.00
59170;BME280;52474;52.236;5.114;2023-07-13T02:28:11;101408.63;;;15.75;100.00
59170;BME280;52474;52.236;5.114;2023-07-13T02:30:37;101416.47;;;15.77;100.00
59170;BME280;52474;52.236;5.114;2023-07-13T02:33:04;101405.41;;;15.72;100.00
59170;BME280;52474;52.236;5.114;2023-07-13T02:35:30;101405.28;;;15.63;100.00
59170;BME280;52474;52.236;5.114;2023-07-13T02:37:57;101411.22;;;15.57;100.00
59170;BME280;52474;52.236;5.114;2023-07-13T02:40:23;101413.59;;;15.60;100.00
59170;BME280;52474;52.236;5.114;2023-07-13T02:42:50;101419.44;;;15.74;100.00
59170;BME280;52474;52.236;5.114;2023-07-13T02:45:16;101415.50;;;15.78;100.00
59170;BME280;52474;52.236;5.114;2023-07-13T02:47:42;101405.41;;;15.72;100.00
59170;BME280;52474;52.236;5.114;2023-07-13T02:50:08;101421.44;;;15.89;100.00
59170;BME280;52474;52.236;5.114;2023-07-13T02:52:34;101426.41;;;16.02;100.00
59170;BME280;52474;52.236;5.114;2023-07-13T02:55:00;101415.25;;;16.07;100.00
59170;BME280;52474;52.236;5.114;2023-07-13T02:57:26;101420.31;;;16.10;100.00
59170;BME280;52474;52.236;5.114;2023-07-13T02:59:53;101413.28;;;16.09;100.00
59170;BME280;52474;52.236;5.114;2023-07-13T03:02:19;101416.78;;;16.09;100.00
59170;BME280;52474;52.236;5.114;2023-07-13T03:04:45;101413.59;;;16.06;100.00
59170;BME280;52474;52.236;5.114;2023-07-13T03:07:11;101407.72;;;16.02;100.00
59170;BME280;52474;52.236;5.114;2023-07-13T03:09:37;101411.38;;;16.01;100.00
59170;BME280;52474;52.236;5.114;2023-07-13T03:12:06;101418.69;;;15.99;100.00
59170;BME280;52474;52.236;5.114;2023-07-13T03:14:32;101418.69;;;15.99;100.00
59170;BME280;52474;52.236;5.114;2023-07-13T03:17:00;101411.44;;;15.92;100.00
59170;BME280;52474;52.236;5.114;2023-07-13T03:19:29;101416.72;;;15.83;100.00
59170;BME280;52474;52.236;5.114;2023-07-13T03:21:55;101405.78;;;15.77;100.00
59170;BME280;52474;52.236;5.114;2023-07-13T03:24:21;101419.53;;;15.82;100.00
59170;BME280;52474;52.236;5.114;2023-07-13T03:26:50;101406.47;;;15.79;100.00
59170;BME280;52474;52.236;5.114;2023-07-13T03:29:17;101389.50;;;15.70;100.00
59170;BME280;52474;52.236;5.114;2023-07-13T03:31:43;101404.56;;;15.89;100.00
59170;BME280;52474;52.236;5.114;2023-07-13T03:34:09;101415.63;;;15.94;100.00
59170;BME280;52474;52.236;5.114;2023-07-13T03:36:36;101424.91;;;16.00;100.00
59170;BME280;52474;52.236;5.114;2023-07-13T03:39:05;101417.53;;;16.02;100.00
59170;BME280;52474;52.236;5.114;2023-07-13T03:41:59;101424.13;;;16.07;100.00
59170;BME280;52474;52.236;5.114;2023-07-13T03:44:27;101420.91;;;16.04;100.00
59170;BME280;52474;52.236;5.114;2023-07-13T03:46:55;101407.25;;;15.89;100.00
59170;BME280;52474;52.236;5.114;2023-07-13T03:49:20;101428.03;;;15.95;100.00
59170;BME280;52474;52.236;5.114;2023-07-13T03:51:46;101416.84;;;15.82;100.00
59170;BME280;52474;52.236;5.114;2023-07-13T03:54:12;101414.50;;;15.79;100.00
59170;BME280;52474;52.236;5.114;2023-07-13T03:56:38;101433.13;;;15.88;100.00
59170;BME280;52474;52.236;5.114;2023-07-13T03:59:06;101436.47;;;15.91;100.00
59170;BME280;52474;52.236;5.114;2023-07-13T04:01:31;101434.97;;;15.88;100.00
59170;BME280;52474;52.236;5.114;2023-07-13T04:03:57;101445.03;;;15.94;100.00
59170;BME280;52474;52.236;5.114;2023-07-13T04:06:27;101444.88;;;15.96;100.00
59170;BME280;52474;52.236;5.114;2023-07-13T04:08:55;101433.50;;;15.94;100.00
59170;BME280;52474;52.236;5.114;2023-07-13T04:11:24;101451.91;;;15.97;100.00
59170;BME280;52474;52.236;5.114;2023-07-13T04:13:50;101451.75;;;15.98;100.00
59170;BME280;52474;52.236;5.114;2023-07-13T04:16:18;101457.63;;;16.02;100.00
59170;BME280;52474;52.236;5.114;2023-07-13T04:18:45;101460.59;;;15.81;100.00
59170;BME280;52474;52.236;5.114;2023-07-13T04:21:11;101453.59;;;15.70;100.00
59170;BME280;52474;52.236;5.114;2023-07-13T04:23:37;101443.19;;;15.67;100.00
59170;BME280;52474;52.236;5.114;2023-07-13T04:26:04;101454.69;;;15.77;100.00
59170;BME280;52474;52.236;5.114;2023-07-13T04:28:30;101458.59;;;15.83;100.00
59170;BME280;52474;52.236;5.114;2023-07-13T04:30:55;101455.72;;;15.94;100.00
59170;BME280;52474;52.236;5.114;2023-07-13T04:33:22;101459.38;;;15.93;100.00
59170;BME280;52474;52.236;5.114;2023-07-13T04:35:52;101464.28;;;15.98;100.00
59170;BME280;52474;52.236;5.114;2023-07-13T04:38:27;101469.16;;;16.02;100.00
59170;BME280;52474;52.236;5.114;2023-07-13T04:40:56;101469.84;;;16.04;100.00
59170;BME280;52474;52.236;5.114;2023-07-13T04:43:23;101475.34;;;16.03;100.00
59170;BME280;52474;52.236;5.114;2023-07-13T04:45:50;101450.81;;;15.89;100.00
59170;BME280;52474;52.236;5.114;2023-07-13T04:48:16;101463.34;;;16.07;100.00
59170;BME280;52474;52.236;5.114;2023-07-13T04:50:42;101477.31;;;16.19;100.00
59170;BME280;52474;52.236;5.114;2023-07-13T04:53:08;101472.81;;;16.19;100.00
59170;BME280;52474;52.236;5.114;2023-07-13T04:55:36;101475.22;;;16.22;100.00
59170;BME280;52474;52.236;5.114;2023-07-13T04:58:02;101468.41;;;16.28;100.00
59170;BME280;52474;52.236;5.114;2023-07-13T05:00:28;101478.00;;;16.39;100.00
59170;BME280;52474;52.236;5.114;2023-07-13T05:02:55;101476.94;;;16.49;100.00
59170;BME280;52474;52.236;5.114;2023-07-13T05:05:26;101471.88;;;16.46;100.00
59170;BME280;52474;52.236;5.114;2023-07-13T05:07:53;101474.47;;;16.56;100.00
59170;BME280;52474;52.236;5.114;2023-07-13T05:10:19;101479.66;;;16.75;100.00
59170;BME280;52474;52.236;5.114;2023-07-13T05:12:44;101490.50;;;16.92;100.00
59170;BME280;52474;52.236;5.114;2023-07-13T05:15:10;101477.75;;;16.86;100.00
59170;BME280;52474;52.236;5.114;2023-07-13T05:17:36;101497.75;;;17.00;100.00
59170;BME280;52474;52.236;5.114;2023-07-13T05:20:05;101484.50;;;16.98;100.00
59170;BME280;52474;52.236;5.114;2023-07-13T05:22:31;101501.09;;;17.02;100.00
59170;BME280;52474;52.236;5.114;2023-07-13T05:24:57;101496.88;;;16.91;100.00
59170;BME280;52474;52.236;5.114;2023-07-13T05:27:23;101500.31;;;17.09;100.00
59170;BME280;52474;52.236;5.114;2023-07-13T05:29:49;101493.19;;;17.18;100.00
59170;BME280;52474;52.236;5.114;2023-07-13T05:32:17;101469.63;;;16.95;100.00
59170;BME280;52474;52.236;5.114;2023-07-13T05:34:43;101499.94;;;17.30;100.00
59170;BME280;52474;52.236;5.114;2023-07-13T05:37:09;101500.91;;;17.21;100.00
59170;BME280;52474;52.236;5.114;2023-07-13T05:39:34;101509.91;;;17.46;100.00
59170;BME280;52474;52.236;5.114;2023-07-13T05:42:01;101512.47;;;17.56;100.00
59170;BME280;52474;52.236;5.114;2023-07-13T05:44:26;101510.16;;;17.69;100.00
59170;BME280;52474;52.236;5.114;2023-07-13T05:46:52;101510.09;;;17.53;100.00
59170;BME280;52474;52.236;5.114;2023-07-13T05:49:18;101513.75;;;17.52;100.00
59170;BME280;52474;52.236;5.114;2023-07-13T05:51:43;101517.56;;;17.75;100.00
59170;BME280;52474;52.236;5.114;2023-07-13T05:54:09;101519.91;;;17.78;100.00
59170;BME280;52474;52.236;5.114;2023-07-13T05:56:35;101514.81;;;18.01;100.00
59170;BME280;52474;52.236;5.114;2023-07-13T05:59:00;101515.25;;;18.39;100.00
59170;BME280;52474;52.236;5.114;2023-07-13T06:01:26;101520.63;;;18.97;100.00
59170;BME280;52474;52.236;5.114;2023-07-13T06:03:52;101521.09;;;19.17;100.00
59170;BME280;52474;52.236;5.114;2023-07-13T06:06:17;101521.22;;;19.40;100.00
59170;BME280;52474;52.236;5.114;2023-07-13T06:08:43;101516.94;;;18.98;100.00
59170;BME280;52474;52.236;5.114;2023-07-13T06:11:20;101523.81;;;18.92;100.00
59170;BME280;52474;52.236;5.114;2023-07-13T06:13:46;101529.50;;;18.97;100.00
59170;BME280;52474;52.236;5.114;2023-07-13T06:16:12;101525.16;;;18.80;100.00
59170;BME280;52474;52.236;5.114;2023-07-13T06:18:39;101512.22;;;18.34;100.00
59170;BME280;52474;52.236;5.114;2023-07-13T06:21:09;101525.25;;;21.96;100.00
59170;BME280;52474;52.236;5.114;2023-07-13T06:23:35;101523.31;;;23.53;100.00
59170;BME280;52474;52.236;5.114;2023-07-13T06:26:03;101519.09;;;24.74;100.00
59170;BME280;52474;52.236;5.114;2023-07-13T06:28:30;101524.78;;;26.47;100.00
59170;BME280;52474;52.236;5.114;2023-07-13T06:30:57;101530.38;;;25.76;100.00
59170;BME280;52474;52.236;5.114;2023-07-13T06:33:23;101526.53;;;26.92;100.00
59170;BME280;52474;52.236;5.114;2023-07-13T06:35:49;101525.56;;;27.05;100.00
59170;BME280;52474;52.236;5.114;2023-07-13T06:38:15;101511.19;;;26.97;100.00
59170;BME280;52474;52.236;5.114;2023-07-13T06:40:41;101518.25;;;26.80;100.00
59170;BME280;52474;52.236;5.114;2023-07-13T06:43:07;101521.81;;;27.06;100.00
59170;BME280;52474;52.236;5.114;2023-07-13T06:45:40;101537.88;;;27.51;100.00
59170;BME280;52474;52.236;5.114;2023-07-13T06:48:06;101544.06;;;26.39;100.00
59170;BME280;52474;52.236;5.114;2023-07-13T06:50:33;101545.38;;;22.72;100.00
59170;BME280;52474;52.236;5.114;2023-07-13T06:52:59;101517.16;;;20.46;100.00
59170;BME280;52474;52.236;5.114;2023-07-13T06:55:25;101538.56;;;18.72;100.00
59170;BME280;52474;52.236;5.114;2023-07-13T06:57:51;101541.72;;;17.84;100.00
59170;BME280;52474;52.236;5.114;2023-07-13T07:00:17;101555.59;;;17.19;100.00
59170;BME280;52474;52.236;5.114;2023-07-13T07:02:43;101557.06;;;16.95;100.00
59170;BME280;52474;52.236;5.114;2023-07-13T07:05:08;101567.22;;;16.73;100.00
59170;BME280;52474;52.236;5.114;2023-07-13T07:07:34;101573.91;;;16.51;100.00
59170;BME280;52474;52.236;5.114;2023-07-13T07:10:00;101544.38;;;16.25;100.00
59170;BME280;52474;52.236;5.114;2023-07-13T07:12:26;101608.16;;;16.38;100.00
59170;BME280;52474;52.236;5.114;2023-07-13T07:14:52;101618.72;;;16.40;100.00
59170;BME280;52474;52.236;5.114;2023-07-13T07:17:17;101610.66;;;16.22;100.00
59170;BME280;52474;52.236;5.114;2023-07-13T07:19:43;101605.91;;;15.88;100.00
59170;BME280;52474;52.236;5.114;2023-07-13T07:22:09;101611.53;;;15.85;100.00
59170;BME280;52474;52.236;5.114;2023-07-13T07:24:34;101605.44;;;16.02;100.00
59170;BME280;52474;52.236;5.114;2023-07-13T07:27:00;101601.41;;;16.16;100.00
59170;BME280;52474;52.236;5.114;2023-07-13T07:29:26;101603.75;;;16.47;100.00
59170;BME280;52474;52.236;5.114;2023-07-13T07:31:53;101599.25;;;16.47;100.00
59170;BME280;52474;52.236;5.114;2023-07-13T07:34:19;101593.81;;;16.39;100.00
59170;BME280;52474;52.236;5.114;2023-07-13T07:36:45;101600.34;;;16.90;100.00
59170;BME280;52474;52.236;5.114;2023-07-13T07:39:11;101584.34;;;22.12;100.00
59170;BME280;52474;52.236;5.114;2023-07-13T07:41:37;101575.38;;;24.98;100.00
59170;BME280;52474;52.236;5.114;2023-07-13T07:44:04;101580.69;;;20.55;100.00
59170;BME280;52474;52.236;5.114;2023-07-13T07:46:30;101588.41;;;19.15;100.00
59170;BME280;52474;52.236;5.114;2023-07-13T07:48:56;101591.78;;;18.17;100.00
59170;BME280;52474;52.236;5.114;2023-07-13T07:51:22;101571.66;;;17.79;100.00
59170;BME280;52474;52.236;5.114;2023-07-13T07:53:48;101582.41;;;21.32;100.00
59170;BME280;52474;52.236;5.114;2023-07-13T07:56:14;101573.06;;;25.02;100.00
59170;BME280;52474;52.236;5.114;2023-07-13T07:58:42;101577.00;;;27.31;100.00
59170;BME280;52474;52.236;5.114;2023-07-13T08:01:08;101580.28;;;27.77;100.00
59170;BME280;52474;52.236;5.114;2023-07-13T08:03:34;101564.03;;;26.51;100.00
59170;BME280;52474;52.236;5.114;2023-07-13T08:05:59;101566.53;;;29.40;100.00
59170;BME280;52474;52.236;5.114;2023-07-13T08:08:25;101570.97;;;30.50;100.00
59170;BME280;52474;52.236;5.114;2023-07-13T08:10:51;101547.72;;;30.07;100.00
59170;BME280;52474;52.236;5.114;2023-07-13T08:13:17;101552.97;;;30.09;100.00
59170;BME280;52474;52.236;5.114;2023-07-13T08:15:43;101568.16;;;25.70;100.00
59170;BME280;52474;52.236;5.114;2023-07-13T08:18:09;101574.84;;;22.31;100.00
59170;BME280;52474;52.236;5.114;2023-07-13T08:20:38;101563.56;;;20.48;100.00
59170;BME280;52474;52.236;5.114;2023-07-13T08:23:04;101571.00;;;19.67;100.00
59170;BME280;52474;52.236;5.114;2023-07-13T08:25:30;101575.84;;;18.83;100.00
59170;BME280;52474;52.236;5.114;2023-07-13T08:27:56;101583.13;;;18.40;100.00
59170;BME280;52474;52.236;5.114;2023-07-13T08:30:22;101588.72;;;18.71;100.00
59170;BME280;52474;52.236;5.114;2023-07-13T08:32:48;101584.16;;;18.72;100.00
59170;BME280;52474;52.236;5.114;2023-07-13T08:35:15;101583.75;;;18.26;100.00
59170;BME280;52474;52.236;5.114;2023-07-13T08:37:41;101581.31;;;17.98;100.00
59170;BME280;52474;52.236;5.114;2023-07-13T08:40:11;101588.41;;;18.15;100.00
59170;BME280;52474;52.236;5.114;2023-07-13T08:42:53;101601.38;;;17.94;100.00
59170;BME280;52474;52.236;5.114;2023-07-13T08:45:29;101601.19;;;17.61;100.00
59170;BME280;52474;52.236;5.114;2023-07-13T08:48:04;101598.41;;;17.97;100.00
59170;BME280;52474;52.236;5.114;2023-07-13T08:50:34;101587.19;;;23.96;100.00
59170;BME280;52474;52.236;5.114;2023-07-13T08:53:02;101591.97;;;27.59;100.00
59170;BME280;52474;52.236;5.114;2023-07-13T08:55:31;101564.25;;;28.89;100.00
59170;BME280;52474;52.236;5.114;2023-07-13T08:58:17;101576.38;;;27.54;100.00
59170;BME280;52474;52.236;5.114;2023-07-13T09:01:01;101566.41;;;25.96;100.00
59170;BME280;52474;52.236;5.114;2023-07-13T09:03:35;101581.56;;;23.56;100.00
59170;BME280;52474;52.236;5.114;2023-07-13T09:06:02;101589.94;;;24.64;100.00
59170;BME280;52474;52.236;5.114;2023-07-13T09:14:24;101605.50;;;26.72;100.00
59170;BME280;52474;52.236;5.114;2023-07-13T09:16:45;101579.13;;;24.84;100.00
59170;BME280;52474;52.236;5.114;2023-07-13T09:19:20;101606.97;;;23.96;100.00
59170;BME280;52474;52.236;5.114;2023-07-13T09:21:50;101605.91;;;22.63;100.00
59170;BME280;52474;52.236;5.114;2023-07-13T09:26:56;101600.69;;;26.35;100.00
59170;BME280;52474;52.236;5.114;2023-07-13T09:29:28;101600.22;;;29.57;100.00
59170;BME280;52474;52.236;5.114;2023-07-13T09:31:57;101611.00;;;26.20;100.00
59170;BME280;52474;52.236;5.114;2023-07-13T09:34:27;101606.63;;;25.27;100.00
59170;BME280;52474;52.236;5.114;2023-07-13T09:36:56;101602.00;;;25.55;100.00
59170;BME280;52474;52.236;5.114;2023-07-13T09:39:33;101578.16;;;24.30;100.00
59170;BME280;52474;52.236;5.114;2023-07-13T09:44:44;101594.00;;;22.36;100.00
59170;BME280;52474;52.236;5.114;2023-07-13T09:47:23;101613.97;;;21.76;100.00
59170;BME280;52474;52.236;5.114;2023-07-13T09:50:00;101596.56;;;21.11;100.00
59170;BME280;52474;52.236;5.114;2023-07-13T09:52:27;101617.81;;;20.59;100.00
59170;BME280;52474;52.236;5.114;2023-07-13T09:54:54;101609.34;;;22.72;100.00
59170;BME280;52474;52.236;5.114;2023-07-13T10:20:10;101640.00;;;23.29;100.00
59170;BME280;52474;52.236;5.114;2023-07-13T10:22:50;101623.69;;;24.75;100.00
59170;BME280;52474;52.236;5.114;2023-07-13T10:25:23;101647.09;;;23.08;100.00
59170;BME280;52474;52.236;5.114;2023-07-13T10:28:02;101641.63;;;24.82;100.00
59170;BME280;52474;52.236;5.114;2023-07-13T10:30:33;101634.16;;;24.23;100.00
59170;BME280;52474;52.236;5.114;2023-07-13T10:33:08;101640.59;;;23.52;100.00
59170;BME280;52474;52.236;5.114;2023-07-13T10:35:37;101644.38;;;25.56;100.00
59170;BME280;52474;52.236;5.114;2023-07-13T10:38:06;101652.00;;;22.98;100.00
59170;BME280;52474;52.236;5.114;2023-07-13T10:40:37;101654.50;;;21.97;100.00
59170;BME280;52474;52.236;5.114;2023-07-13T10:43:13;101649.13;;;21.30;100.00
59170;BME280;52474;52.236;5.114;2023-07-13T10:45:45;101660.56;;;20.86;100.00
59170;BME280;52474;52.236;5.114;2023-07-13T10:48:14;101639.41;;;20.83;100.00
59170;BME280;52474;52.236;5.114;2023-07-13T10:50:42;101640.81;;;21.31;100.00
59170;BME280;52474;52.236;5.114;2023-07-13T10:53:36;101665.53;;;21.58;100.00
59170;BME280;52474;52.236;5.114;2023-07-13T10:56:26;101672.81;;;23.75;100.00
59170;BME280;52474;52.236;5.114;2023-07-13T10:59:11;101659.41;;;26.30;100.00
59170;BME280;52474;52.236;5.114;2023-07-13T11:01:50;101673.72;;;23.61;100.00
59170;BME280;52474;52.236;5.114;2023-07-13T11:04:19;101669.94;;;27.28;100.00
59170;BME280;52474;52.236;5.114;2023-07-13T11:06:48;101681.28;;;26.48;100.00
59170;BME280;52474;52.236;5.114;2023-07-13T11:09:37;101685.88;;;24.07;100.00
59170;BME280;52474;52.236;5.114;2023-07-13T11:12:25;101680.44;;;25.16;100.00
59170;BME280;52474;52.236;5.114;2023-07-13T11:20:21;101692.94;;;28.68;100.00
59170;BME280;52474;52.236;5.114;2023-07-13T11:22:52;101668.31;;;29.40;100.00
59170;BME280;52474;52.236;5.114;2023-07-13T11:25:35;101681.41;;;29.73;100.00
59170;BME280;52474;52.236;5.114;2023-07-13T11:28:15;101695.38;;;29.30;100.00
59170;BME280;52474;52.236;5.114;2023-07-13T11:35:58;101685.41;;;28.33;100.00
59170;BME280;52474;52.236;5.114;2023-07-13T11:40:54;101691.00;;;29.29;100.00
59170;BME280;52474;52.236;5.114;2023-07-13T11:43:21;101680.16;;;29.10;100.00
59170;BME280;52474;52.236;5.114;2023-07-13T11:45:49;101688.34;;;27.26;100.00
59170;BME280;52474;52.236;5.114;2023-07-13T11:48:27;101665.63;;;28.98;100.00
59170;BME280;52474;52.236;5.114;2023-07-13T11:50:56;101675.19;;;28.10;100.00
59170;BME280;52474;52.236;5.114;2023-07-13T11:53:26;101656.47;;;28.81;100.00
59170;BME280;52474;52.236;5.114;2023-07-13T11:55:52;101680.22;;;29.69;100.00
59170;BME280;52474;52.236;5.114;2023-07-13T11:58:23;101654.56;;;29.70;100.00
59170;BME280;52474;52.236;5.114;2023-07-13T12:00:49;101690.66;;;28.95;100.00
59170;BME280;52474;52.236;5.114;2023-07-13T12:03:21;101686.38;;;28.20;100.00
59170;BME280;52474;52.236;5.114;2023-07-13T12:06:06;101683.53;;;28.64;100.00
59170;BME280;52474;52.236;5.114;2023-07-13T12:08:44;101696.16;;;28.77;100.00
59170;BME280;52474;52.236;5.114;2023-07-13T12:11:16;101678.63;;;27.80;100.00
59170;BME280;52474;52.236;5.114;2023-07-13T12:13:44;101692.81;;;27.89;100.00
59170;BME280;52474;52.236;5.114;2023-07-13T12:16:20;101699.94;;;26.31;100.00
59170;BME280;52474;52.236;5.114;2023-07-13T12:18:47;101691.41;;;27.80;100.00
59170;BME280;52474;52.236;5.114;2023-07-13T12:21:17;101684.06;;;28.73;100.00
59170;BME280;52474;52.236;5.114;2023-07-13T12:23:44;101686.63;;;28.00;100.00
59170;BME280;52474;52.236;5.114;2023-07-13T12:26:12;101690.00;;;27.96;100.00
59170;BME280;52474;52.236;5.114;2023-07-13T12:28:53;101686.47;;;27.95;100.00
59170;BME280;52474;52.236;5.114;2023-07-13T12:31:41;101686.16;;;29.01;100.00
59170;BME280;52474;52.236;5.114;2023-07-13T12:34:11;101678.47;;;28.19;100.00
59170;BME280;52474;52.236;5.114;2023-07-13T12:36:49;101690.53;;;28.41;100.00
59170;BME280;52474;52.236;5.114;2023-07-13T12:39:22;101687.22;;;28.02;100.00
59170;BME280;52474;52.236;5.114;2023-07-13T12:41:50;101701.78;;;26.38;100.00
59170;BME280;52474;52.236;5.114;2023-07-13T12:44:26;101687.97;;;25.67;100.00
59170;BME280;52474;52.236;5.114;2023-07-13T12:47:14;101691.94;;;25.52;100.00
59170;BME280;52474;52.236;5.114;2023-07-13T12:49:48;101677.34;;;25.46;100.00
59170;BME280;52474;52.236;5.114;2023-07-13T12:52:17;101690.59;;;24.74;100.00
59170;BME280;52474;52.236;5.114;2023-07-13T12:54:54;101684.78;;;24.36;100.00
59170;BME280;52474;52.236;5.114;2023-07-13T12:57:22;101695.25;;;24.04;100.00
59170;BME280;52474;52.236;5.114;2023-07-13T12:59:52;101700.97;;;24.71;100.00
59170;BME280;52474;52.236;5.114;2023-07-13T13:02:30;101693.03;;;24.62;100.00
59170;BME280;52474;52.236;5.114;2023-07-13T13:04:58;101693.06;;;24.69;100.00
59170;BME280;52474;52.236;5.114;2023-07-13T13:07:25;101705.25;;;24.45;100.00
59170;BME280;52474;52.236;5.114;2023-07-13T13:09:52;101680.44;;;24.41;100.00
59170;BME280;52474;52.236;5.114;2023-07-13T13:12:19;101700.84;;;24.37;100.00
59170;BME280;52474;52.236;5.114;2023-07-13T13:14:45;101710.66;;;24.45;100.00
59170;BME280;52474;52.236;5.114;2023-07-13T13:17:32;101696.53;;;24.50;100.00
59170;BME280;52474;52.236;5.114;2023-07-13T13:19:58;101720.38;;;24.74;100.00
59170;BME280;52474;52.236;5.114;2023-07-13T13:22:24;101715.25;;;24.45;100.00
59170;BME280;52474;52.236;5.114;2023-07-13T13:24:49;101725.47;;;24.14;100.00
59170;BME280;52474;52.236;5.114;2023-07-13T13:27:17;101704.69;;;24.15;100.00
59170;BME280;52474;52.236;5.114;2023-07-13T13:29:44;101704.50;;;24.23;100.00
59170;BME280;52474;52.236;5.114;2023-07-13T13:32:14;101724.97;;;24.32;100.00
59170;BME280;52474;52.236;5.114;2023-07-13T13:34:40;101723.72;;;23.72;100.00
59170;BME280;52474;52.236;5.114;2023-07-13T13:37:16;101733.66;;;23.65;100.00
59170;BME280;52474;52.236;5.114;2023-07-13T13:39:44;101716.66;;;23.71;100.00